EDT,Max TemperatureF,Mean TemperatureF,Min TemperatureF,Max Dew PointF,MeanDew PointF,Min DewpointF,Max Humidity, Mean Humidity, Min Humidity, Max Sea Level PressureIn, Mean Sea Level PressureIn, Min Sea Level PressureIn, Max VisibilityMiles, Mean VisibilityMiles, Min VisibilityMiles, Max Wind SpeedMPH, Mean Wind SpeedMPH, Max Gust SpeedMPH,PrecipitationIn, CloudCover, Events, WindDirDegrees
2013-5-1,82,73,64,72,67,64,100,85,69,30.03,29.98,29.95,10,6,0,22,5,28,0.55,3,Fog-Rain,69
2013-5-2,73,70,67,72,68,64,93,86,79,29.97,29.91,29.84,10,7,1,23,10,36,2.43,7,Rain-Thunderstorm,112
2013-5-3,87,78,68,71,68,64,90,69,48,29.84,29.74,29.68,10,9,0,24,8,29,0.60,4,Fog-Rain-Thunderstorm,193
2013-5-4,86,75,64,70,67,64,100,76,51,29.80,29.74,29.70,10,8,1,15,7,20,0.26,4,Rain,216
2013-5-5,80,70,60,67,59,42,100,63,26,29.94,29.84,29.76,10,10,10,18,9,23,0.00,3,,282
2013-5-6,83,71,58,61,56,50,93,66,39,30.01,29.96,29.92,10,10,10,21,9,24,0.00,2,,259
2013-5-7,82,67,52,57,54,50,96,68,39,30.07,30.02,29.98,10,10,10,21,7,26,0.00,0,,269
2013-5-8,83,70,56,65,59,55,93,68,42,30.14,30.09,30.04,10,10,10,13,5,18,0.00,2,,195
2013-5-9,82,72,62,70,64,58,93,78,62,30.16,30.12,30.09,10,10,10,13,6,16,0.00,0,,21
2013-5-10,86,76,66,75,69,64,93,77,61,30.15,30.08,30.04,10,8,1,20,8,25,0.14,2,Rain-Thunderstorm,124
2013-5-11,91,81,70,74,70,65,93,69,44,30.08,30.04,29.96,10,7,0,33,7,47,1.65,5,Fog-Rain-Thunderstorm,218
2013-5-12,87,78,69,73,71,68,100,79,57,30.04,30.00,29.96,10,9,0,18,6,23,0.44,4,Rain-Thunderstorm,219
2013-5-13,82,75,68,71,65,56,93,75,57,30.13,30.06,30.00,10,10,10,16,8,22,0.00,0,,332
2013-5-14,80,73,66,57,55,50,68,56,43,30.21,30.17,30.12,10,10,10,16,8,20,0.00,0,,51
2013-5-15,81,71,60,63,59,55,90,70,49,30.22,30.17,30.13,10,10,10,15,7,22,0.00,2,,90
2013-5-16,81,71,60,63,61,57,93,71,49,30.14,30.10,30.07,10,10,10,15,6,21,0.00,0,,115
2013-5-17,84,75,65,68,66,62,93,76,58,30.11,30.09,30.04,10,10,10,17,8,23,0.00,2,,98
2013-5-18,85,77,68,72,70,66,93,77,61,30.12,30.09,30.06,10,10,9,18,8,24,0.00,2,,130
2013-5-19,84,77,69,70,69,68,90,78,65,30.12,30.08,30.04,10,10,10,18,8,23,0.01,3,Thunderstorm,139
2013-5-20,81,76,70,72,70,68,93,81,69,30.11,30.06,30.01,10,9,1,16,5,20,1.39,6,Rain,117
2013-5-21,84,76,68,73,70,67,97,81,65,30.05,30.01,29.97,10,9,2,20,7,24,0.15,4,Rain,116
2013-5-22,83,75,67,73,71,67,100,85,69,29.99,29.95,29.93,10,10,5,17,5,22,0.00,2,,115
2013-5-23,86,77,68,73,71,68,100,81,61,30.01,29.98,29.92,10,10,7,14,5,17,0.00,1,,56
2013-5-24,90,79,68,73,69,63,97,69,41,30.09,30.03,29.97,10,10,10,14,5,18,0.00,1,,1
2013-5-25,85,78,71,73,65,60,94,69,44,30.21,30.15,30.08,10,10,10,18,10,24,0.02,4,,55
2013-5-26,82,71,60,66,62,57,90,73,56,30.22,30.18,30.15,10,10,10,15,9,20,0.00,2,,64
2013-5-27,83,77,71,70,66,60,74,66,58,30.19,30.16,30.12,10,10,10,17,12,24,0.00,3,,84
2013-5-28,86,80,74,73,71,67,87,76,65,30.14,30.12,30.09,10,9,4,21,13,26,0.17,5,Rain,99
2013-5-29,84,79,73,73,72,71,88,79,69,30.14,30.10,30.06,10,9,2,26,13,31,0.36,4,Rain,109
2013-5-30,86,82,77,73,71,68,88,75,61,30.12,30.09,30.06,10,10,10,24,15,35,0.02,3,,101
2013-5-31,85,81,77,73,71,67,79,72,65,30.11,30.08,30.06,10,10,10,22,15,26,T,4,,101